Time;durP1;ratioP1;P1;durP2;ratioP2;P2;SDS_P1;SDS_P2;PMS_P1;PMS_P2;Temp;Humidity;BMP_temperature;BMP_pressure;BME280_temperature;BME280_humidity;BME280_pressure;Samples;Min_cycle;Max_cycle;Signal;HPM_P1;HPM_P2
2023/01/25 00:00:47;;;;;;;26.77;12.17;;;1.20;99.90;;;;;;5071253;28;20414;-74
2023/01/25 00:03:12;;;;;;;29.77;12.20;;;1.20;99.90;;;;;;5063197;28;20205;-74
2023/01/25 00:05:38;;;;;;;22.90;11.33;;;1.20;99.90;;;;;;5069293;28;20177;-74
2023/01/25 00:08:04;;;;;;;27.87;14.30;;;1.20;99.90;;;;;;5065165;28;20196;-74
2023/01/25 00:10:29;;;;;;;34.23;13.17;;;1.20;99.90;;;;;;5068713;28;20172;-74
2023/01/25 00:12:55;;;;;;;37.73;12.30;;;1.20;99.90;;;;;;5063293;28;20590;-74
2023/01/25 00:15:22;;;;;;;30.83;13.90;;;1.20;99.90;;;;;;5060842;28;20272;-74
2023/01/25 00:17:47;;;;;;;27.70;11.63;;;1.20;99.90;;;;;;5062903;28;20424;-74
2023/01/25 00:20:13;;;;;;;28.60;13.80;;;1.30;99.90;;;;;;5052099;28;20424;-74
2023/01/25 00:22:39;;;;;;;21.17;11.13;;;1.30;99.90;;;;;;5057515;28;20259;-74
2023/01/25 00:25:05;;;;;;;25.83;12.13;;;1.20;99.90;;;;;;5057869;28;20181;-74
2023/01/25 00:27:30;;;;;;;27.50;12.60;;;1.20;99.90;;;;;;5064617;28;20181;-74
2023/01/25 00:29:56;;;;;;;33.47;12.43;;;1.20;99.90;;;;;;5051167;28;20180;-74
2023/01/25 00:32:35;;;;;;;30.10;11.87;;;1.20;99.90;;;;;;5051675;28;20192;-74
2023/01/25 00:35:00;;;;;;;34.87;12.57;;;1.20;99.90;;;;;;5071269;28;20263;-74
2023/01/25 00:37:35;;;;;;;33.40;13.77;;;1.20;99.90;;;;;;5071435;28;20498;-74
2023/01/25 00:40:00;;;;;;;30.33;13.53;;;1.20;99.90;;;;;;5060375;28;20190;-74
2023/01/25 00:42:26;;;;;;;25.73;12.60;;;1.20;99.90;;;;;;5057000;28;20808;-74
2023/01/25 00:44:52;;;;;;;24.73;12.50;;;1.20;99.90;;;;;;5064725;28;20178;-74
2023/01/25 00:47:17;;;;;;;40.47;12.87;;;1.20;99.90;;;;;;5066233;28;20261;-74
2023/01/25 00:49:44;;;;;;;37.70;14.70;;;1.20;99.90;;;;;;5057740;28;20191;-74
2023/01/25 00:52:10;;;;;;;28.57;12.23;;;1.20;99.90;;;;;;5059092;28;20177;-74
2023/01/25 00:54:35;;;;;;;32.73;13.20;;;1.30;99.90;;;;;;5051119;28;21245;-74
2023/01/25 00:57:01;;;;;;;35.83;12.50;;;1.30;99.90;;;;;;5071046;28;20688;-74
2023/01/25 00:59:26;;;;;;;27.83;13.00;;;1.20;99.90;;;;;;5070809;28;20693;-74
2023/01/25 01:01:53;;;;;;;35.67;14.23;;;1.20;99.90;;;;;;5070983;28;20216;-74
2023/01/25 01:04:19;;;;;;;25.27;10.83;;;1.20;99.90;;;;;;5066581;28;20178;-75
2023/01/25 01:06:45;;;;;;;29.60;13.77;;;1.20;99.90;;;;;;5070846;28;20423;-74
2023/01/25 01:09:14;;;;;;;31.87;12.67;;;1.20;99.90;;;;;;5066244;28;20424;-75
2023/01/25 01:11:39;;;;;;;31.57;11.97;;;1.20;99.90;;;;;;5050728;28;20189;-74
2023/01/25 01:14:05;;;;;;;33.97;13.27;;;1.20;99.90;;;;;;5068912;28;20553;-74
2023/01/25 01:16:31;;;;;;;31.37;12.00;;;1.20;99.90;;;;;;5068100;28;20280;-74
2023/01/25 01:18:57;;;;;;;31.90;12.37;;;1.20;99.90;;;;;;5066261;28;20229;-75
2023/01/25 01:21:23;;;;;;;22.97;12.03;;;1.20;99.90;;;;;;5062269;28;20177;-74
2023/01/25 01:23:49;;;;;;;19.00;10.07;;;1.20;99.90;;;;;;5065821;28;20258;-74
2023/01/25 01:26:18;;;;;;;24.80;12.83;;;1.20;99.90;;;;;;5051146;28;20507;-74
2023/01/25 01:28:44;;;;;;;27.73;12.90;;;1.30;99.90;;;;;;5065021;28;20178;-74
2023/01/25 01:31:13;;;;;;;27.70;12.50;;;1.30;99.90;;;;;;5050992;28;21117;-75
2023/01/25 01:33:38;;;;;;;31.53;11.20;;;1.30;99.90;;;;;;5056865;28;20424;-74
2023/01/25 01:36:12;;;;;;;29.67;11.40;;;1.30;99.90;;;;;;5050825;28;20966;-74
2023/01/25 01:38:38;;;;;;;26.40;13.00;;;1.30;99.90;;;;;;5070297;28;20196;-74
2023/01/25 01:41:04;;;;;;;29.87;11.93;;;1.30;99.90;;;;;;5067374;28;21175;-74
2023/01/25 01:43:30;;;;;;;30.57;11.87;;;1.20;99.90;;;;;;5065632;28;20233;-74
2023/01/25 01:46:20;;;;;;;24.30;12.07;;;1.20;99.90;;;;;;5067389;28;20480;-74
2023/01/25 01:49:22;;;;;;;26.10;12.60;;;1.20;99.90;;;;;;5065389;28;20181;-74
2023/01/25 01:51:49;;;;;;;28.73;13.10;;;1.30;99.90;;;;;;5062680;28;20887;-74
2023/01/25 01:54:32;;;;;;;24.47;11.60;;;1.30;99.90;;;;;;5057910;28;20447;-74
2023/01/25 01:57:17;;;;;;;27.70;11.03;;;1.30;99.90;;;;;;5066089;28;20434;-74
2023/01/25 01:59:55;;;;;;;25.80;11.43;;;1.20;99.90;;;;;;5073652;28;20453;-74
2023/01/25 02:02:24;;;;;;;30.00;13.63;;;1.20;99.90;;;;;;5070642;28;20468;-74
2023/01/25 02:04:52;;;;;;;20.37;10.77;;;1.30;99.90;;;;;;5063845;28;20448;-74
2023/01/25 02:07:24;;;;;;;26.63;10.80;;;1.30;99.90;;;;;;5069759;28;20416;-73
2023/01/25 02:09:50;;;;;;;30.50;11.90;;;1.30;99.90;;;;;;5063056;28;20893;-74
2023/01/25 02:12:17;;;;;;;19.63;11.20;;;1.30;99.90;;;;;;5067017;28;21049;-74
2023/01/25 02:14:50;;;;;;;21.83;10.47;;;1.30;99.90;;;;;;5064771;28;20433;-74
2023/01/25 02:17:35;;;;;;;24.10;12.87;;;1.30;99.90;;;;;;5068721;28;20466;-74
2023/01/25 02:20:18;;;;;;;27.00;11.40;;;1.30;99.90;;;;;;5067007;28;20443;-74
2023/01/25 02:22:59;;;;;;;27.43;10.37;;;1.30;99.90;;;;;;5063919;28;20467;-74
2023/01/25 02:25:25;;;;;;;19.90;10.90;;;1.30;99.90;;;;;;5073513;28;20466;-74
2023/01/25 02:28:02;;;;;;;29.67;12.70;;;1.30;99.90;;;;;;5060770;28;21023;-74
2023/01/25 02:30:27;;;;;;;23.10;9.93;;;1.30;99.90;;;;;;5053271;28;20487;-74
2023/01/25 02:32:53;;;;;;;23.40;11.03;;;1.30;99.90;;;;;;5057077;28;20569;-73
2023/01/25 02:35:21;;;;;;;29.87;12.50;;;1.30;99.90;;;;;;5053401;28;20208;-74
2023/01/25 02:37:47;;;;;;;23.03;10.30;;;1.30;99.90;;;;;;5067724;28;20181;-74
2023/01/25 02:40:12;;;;;;;20.80;10.47;;;1.30;99.90;;;;;;5073131;28;20423;-74
2023/01/25 02:42:42;;;;;;;29.80;11.53;;;1.30;99.90;;;;;;5072633;28;20459;-74
2023/01/25 02:45:12;;;;;;;23.00;12.00;;;1.30;99.90;;;;;;5065034;28;20194;-74
2023/01/25 02:47:38;;;;;;;23.40;11.37;;;1.20;99.90;;;;;;5070006;28;20458;-74
2023/01/25 02:50:04;;;;;;;27.20;10.67;;;1.20;99.90;;;;;;5065904;28;20416;-74
2023/01/25 02:52:29;;;;;;;24.20;12.07;;;1.30;99.90;;;;;;5069935;28;20200;-74
2023/01/25 02:54:55;;;;;;;25.90;10.43;;;1.20;99.90;;;;;;5073273;28;20247;-74
2023/01/25 02:57:20;;;;;;;27.37;12.60;;;1.20;99.90;;;;;;5058102;28;20206;-74
2023/01/25 02:59:46;;;;;;;20.10;10.97;;;1.20;99.90;;;;;;5061229;28;20185;-74
2023/01/25 03:02:11;;;;;;;34.13;12.17;;;1.30;99.90;;;;;;5068728;28;20216;-74
2023/01/25 03:04:37;;;;;;;30.80;12.23;;;1.20;99.90;;;;;;5072569;28;20542;-74
2023/01/25 03:07:03;;;;;;;20.53;10.00;;;1.30;99.90;;;;;;5059348;28;20186;-74
2023/01/25 03:09:28;;;;;;;20.00;10.80;;;1.30;99.90;;;;;;5052698;28;20197;-74
2023/01/25 03:11:54;;;;;;;19.10;9.43;;;1.30;99.90;;;;;;5065338;28;20267;-74
2023/01/25 03:14:19;;;;;;;31.60;12.60;;;1.30;99.90;;;;;;5072442;28;20580;-73
2023/01/25 03:16:45;;;;;;;17.13;9.57;;;1.30;99.90;;;;;;5070171;28;20177;-74
2023/01/25 03:19:10;;;;;;;32.23;11.80;;;1.20;99.90;;;;;;5071963;28;20181;-73
2023/01/25 03:21:36;;;;;;;27.57;11.20;;;1.30;99.90;;;;;;5071572;28;20534;-74
2023/01/25 03:24:02;;;;;;;24.23;11.17;;;1.20;99.90;;;;;;5058720;28;20667;-74
2023/01/25 03:26:28;;;;;;;24.80;11.97;;;1.20;99.90;;;;;;5058731;28;20235;-73
2023/01/25 03:28:54;;;;;;;25.93;11.30;;;1.20;99.90;;;;;;5065894;28;20224;-74
2023/01/25 03:31:19;;;;;;;24.60;11.10;;;1.10;99.90;;;;;;5052176;28;20452;-74
2023/01/25 03:33:45;;;;;;;22.60;10.23;;;1.20;99.90;;;;;;5058513;28;20181;-74
2023/01/25 03:36:11;;;;;;;21.40;10.50;;;1.20;99.90;;;;;;5052339;28;20178;-73
2023/01/25 03:38:37;;;;;;;23.00;10.93;;;1.10;99.90;;;;;;5059787;28;20446;-74
2023/01/25 03:41:03;;;;;;;39.57;11.77;;;1.10;99.90;;;;;;5058638;28;20186;-73
2023/01/25 03:43:29;;;;;;;26.70;11.20;;;1.20;99.90;;;;;;5071089;28;20212;-73
2023/01/25 03:45:59;;;;;;;22.47;11.73;;;1.20;99.90;;;;;;5059649;28;20419;-74
2023/01/25 03:48:26;;;;;;;25.93;12.67;;;1.20;99.90;;;;;;5060426;28;20423;-73
2023/01/25 03:50:54;;;;;;;27.77;11.27;;;1.30;99.90;;;;;;5069841;28;20914;-73
2023/01/25 03:53:30;;;;;;;28.10;11.70;;;1.20;99.90;;;;;;5060222;28;20423;-73
2023/01/25 03:56:03;;;;;;;26.57;11.17;;;1.30;99.90;;;;;;5068150;28;20424;-73
2023/01/25 03:58:29;;;;;;;32.77;12.93;;;1.30;99.90;;;;;;5063127;28;20532;-74
2023/01/25 04:00:57;;;;;;;20.30;9.57;;;1.20;99.90;;;;;;5069958;28;20435;-74
2023/01/25 04:03:24;;;;;;;31.27;13.83;;;1.30;99.90;;;;;;5070707;28;20462;-74
2023/01/25 04:05:53;;;;;;;26.63;11.90;;;1.30;99.90;;;;;;5057986;28;20422;-73
2023/01/25 04:08:19;;;;;;;22.63;11.50;;;1.30;99.90;;;;;;5059764;28;20416;-74
2023/01/25 04:10:51;;;;;;;26.53;11.33;;;1.20;99.90;;;;;;5065048;28;20586;-74
2023/01/25 04:13:16;;;;;;;30.87;12.57;;;1.20;99.90;;;;;;5051509;28;20502;-73
2023/01/25 04:15:42;;;;;;;32.57;13.37;;;1.20;99.90;;;;;;5056690;28;20465;-73
2023/01/25 04:18:07;;;;;;;28.00;12.20;;;1.20;99.90;;;;;;5071557;28;20181;-73
2023/01/25 04:20:33;;;;;;;30.50;11.60;;;1.20;99.90;;;;;;5057912;28;20179;-74
2023/01/25 04:22:58;;;;;;;22.83;11.40;;;1.20;99.90;;;;;;5058651;28;20869;-73
2023/01/25 04:25:24;;;;;;;25.80;11.80;;;1.20;99.90;;;;;;5051286;28;20185;-74
2023/01/25 04:27:50;;;;;;;22.33;10.20;;;1.20;99.90;;;;;;5064292;28;20186;-73
2023/01/25 04:30:16;;;;;;;19.67;11.43;;;1.30;99.90;;;;;;5052078;28;20249;-74
2023/01/25 04:32:41;;;;;;;24.93;11.70;;;1.20;99.90;;;;;;5059919;28;20416;-74
2023/01/25 04:35:07;;;;;;;22.50;11.27;;;1.30;99.90;;;;;;5064716;28;20193;-74
2023/01/25 04:37:33;;;;;;;22.33;10.30;;;1.30;99.90;;;;;;5063616;28;20196;-74
2023/01/25 04:39:58;;;;;;;24.27;11.77;;;1.20;99.90;;;;;;5062909;28;20904;-74
2023/01/25 04:42:24;;;;;;;22.43;10.77;;;1.20;99.90;;;;;;5050864;28;20205;-74
2023/01/25 04:44:50;;;;;;;23.80;10.07;;;1.20;99.90;;;;;;5051222;28;20657;-74
2023/01/25 04:47:15;;;;;;;24.30;10.17;;;1.20;99.90;;;;;;5066139;28;20196;-74
2023/01/25 04:49:41;;;;;;;26.50;11.03;;;1.20;99.90;;;;;;5052358;28;20194;-74
2023/01/25 04:52:06;;;;;;;24.60;10.43;;;1.10;99.90;;;;;;5051179;28;20196;-74
2023/01/25 04:54:32;;;;;;;16.93;9.37;;;1.20;99.90;;;;;;5050781;28;20266;-74
2023/01/25 04:56:57;;;;;;;28.13;10.33;;;1.20;99.90;;;;;;5051170;28;20190;-74
2023/01/25 04:59:23;;;;;;;22.80;9.77;;;1.10;99.90;;;;;;5069192;28;20199;-74
2023/01/25 05:01:49;;;;;;;30.63;11.20;;;1.20;99.90;;;;;;5070600;28;20181;-74
2023/01/25 05:04:14;;;;;;;18.47;10.23;;;1.20;99.90;;;;;;5068452;28;20684;-74
2023/01/25 05:06:40;;;;;;;31.13;10.43;;;1.20;99.90;;;;;;5071339;28;20205;-74
2023/01/25 05:09:05;;;;;;;20.70;10.17;;;1.20;99.90;;;;;;5071101;28;20185;-74
2023/01/25 05:11:31;;;;;;;27.03;10.70;;;1.20;99.90;;;;;;5059301;28;20178;-74
2023/01/25 05:13:57;;;;;;;21.20;9.20;;;1.20;99.90;;;;;;5051019;28;20255;-74
2023/01/25 05:16:22;;;;;;;19.80;10.50;;;1.20;99.90;;;;;;5064530;28;20234;-74
2023/01/25 05:18:48;;;;;;;22.90;9.53;;;1.20;99.90;;;;;;5075088;28;20192;-74
2023/01/25 05:23:58;;;;;;;17.60;8.00;;;1.20;99.90;;;;;;5055244;28;20288;-74
2023/01/25 05:29:10;;;;;;;21.87;10.00;;;1.20;99.90;;;;;;5064364;28;20246;-74
2023/01/25 05:31:36;;;;;;;17.53;9.30;;;1.20;99.90;;;;;;5060766;28;20422;-74
2023/01/25 05:34:01;;;;;;;26.20;10.93;;;1.20;99.90;;;;;;5060060;28;20420;-74
2023/01/25 05:36:27;;;;;;;23.67;10.40;;;1.20;99.90;;;;;;5057894;28;20185;-74
2023/01/25 05:38:53;;;;;;;25.93;11.37;;;1.20;99.90;;;;;;5074731;28;20259;-74
2023/01/25 05:41:18;;;;;;;25.13;9.40;;;1.20;99.90;;;;;;5070339;28;20185;-74
2023/01/25 05:43:47;;;;;;;22.27;8.67;;;1.20;99.90;;;;;;5073839;28;20705;-74
2023/01/25 05:46:13;;;;;;;21.73;8.50;;;1.20;99.90;;;;;;5067944;28;20177;-74
2023/01/25 05:48:39;;;;;;;22.17;9.33;;;1.20;99.90;;;;;;5054611;28;20463;-74
2023/01/25 05:51:05;;;;;;;18.17;8.80;;;1.20;99.90;;;;;;5071166;28;20205;-74
2023/01/25 05:53:31;;;;;;;16.40;8.17;;;1.20;99.90;;;;;;5064037;28;20582;-74
2023/01/25 05:56:06;;;;;;;20.30;9.40;;;1.20;99.90;;;;;;5054203;28;20424;-73
2023/01/25 05:58:32;;;;;;;18.63;9.07;;;1.20;99.90;;;;;;5065399;28;20880;-73
2023/01/25 06:01:01;;;;;;;21.03;7.83;;;1.20;99.90;;;;;;5073759;28;20502;-74
2023/01/25 06:03:26;;;;;;;17.80;8.20;;;1.20;99.90;;;;;;5055177;28;20568;-73
2023/01/25 06:06:02;;;;;;;22.07;10.13;;;1.30;99.90;;;;;;5058853;28;20435;-74
2023/01/25 06:08:30;;;;;;;16.63;10.23;;;1.30;99.90;;;;;;5070460;28;20168;-73
2023/01/25 06:10:56;;;;;;;21.90;8.40;;;1.20;99.90;;;;;;5073513;28;20411;-74
2023/01/25 06:13:23;;;;;;;13.80;7.73;;;1.20;99.90;;;;;;5060540;28;20822;-74
2023/01/25 06:15:56;;;;;;;18.40;8.43;;;1.20;99.90;;;;;;5068452;28;20899;-74
2023/01/25 06:18:26;;;;;;;17.77;9.00;;;1.20;99.90;;;;;;5060649;28;20968;-74
2023/01/25 06:20:54;;;;;;;16.03;8.03;;;1.30;99.90;;;;;;5073344;28;20430;-74
2023/01/25 06:23:20;;;;;;;15.23;7.70;;;1.30;99.90;;;;;;5069298;28;20983;-74
2023/01/25 06:25:46;;;;;;;16.90;6.60;;;1.30;99.90;;;;;;5065070;28;20452;-74
2023/01/25 06:28:11;;;;;;;20.70;8.80;;;1.20;99.90;;;;;;5058381;28;20182;-74
2023/01/25 06:30:37;;;;;;;21.03;9.37;;;1.30;99.90;;;;;;5064854;28;20181;-73
2023/01/25 06:33:02;;;;;;;16.67;8.40;;;1.20;99.90;;;;;;5052698;28;20178;-74
2023/01/25 06:35:31;;;;;;;16.00;8.13;;;1.20;99.90;;;;;;5055971;28;20259;-73
2023/01/25 06:37:57;;;;;;;30.70;8.70;;;1.20;99.90;;;;;;5072402;28;20212;-73
2023/01/25 06:40:23;;;;;;;13.70;7.40;;;1.20;99.90;;;;;;5073421;28;20828;-73
2023/01/25 06:42:49;;;;;;;16.30;8.63;;;1.20;99.90;;;;;;5072996;28;20534;-75
2023/01/25 06:45:14;;;;;;;18.77;7.83;;;1.20;99.90;;;;;;5064796;28;20627;-78
2023/01/25 06:47:40;;;;;;;21.53;8.30;;;1.10;99.90;;;;;;5067065;28;20207;-76
2023/01/25 06:50:07;;;;;;;13.63;7.17;;;1.10;99.90;;;;;;5053940;28;20610;-75
2023/01/25 06:52:35;;;;;;;19.37;10.00;;;1.20;99.90;;;;;;5067401;28;20267;-76
2023/01/25 06:55:02;;;;;;;23.10;9.33;;;1.20;99.90;;;;;;5062268;28;20514;-77
2023/01/25 06:57:28;;;;;;;27.47;8.00;;;1.10;99.90;;;;;;5073822;28;20443;-76
2023/01/25 06:59:54;;;;;;;18.97;7.93;;;1.20;99.90;;;;;;5073730;28;20498;-76
2023/01/25 07:02:20;;;;;;;14.57;8.07;;;1.20;99.90;;;;;;5072778;28;20466;-76
2023/01/25 07:04:45;;;;;;;15.70;9.20;;;1.20;99.90;;;;;;5073786;28;20415;-75
2023/01/25 07:07:11;;;;;;;15.77;6.80;;;1.20;99.90;;;;;;5072277;28;20224;-76
2023/01/25 07:09:37;;;;;;;16.43;8.13;;;1.10;99.90;;;;;;5061418;28;20505;-77
2023/01/25 07:12:05;;;;;;;21.53;8.33;;;1.10;99.90;;;;;;5058912;28;20284;-76
2023/01/25 07:14:32;;;;;;;15.93;8.27;;;1.10;99.90;;;;;;5053604;28;20501;-76
2023/01/25 07:16:58;;;;;;;16.47;7.47;;;1.10;99.90;;;;;;5066990;28;20529;-76
2023/01/25 07:19:23;;;;;;;18.80;8.20;;;1.10;99.90;;;;;;5061323;28;20444;-76
2023/01/25 07:21:49;;;;;;;19.73;8.07;;;1.10;99.90;;;;;;5072679;28;20420;-78
2023/01/25 07:24:17;;;;;;;19.90;8.70;;;1.10;99.90;;;;;;5071574;28;20653;-76
2023/01/25 07:26:43;;;;;;;16.63;8.13;;;1.10;99.90;;;;;;5059889;28;20679;-76
2023/01/25 07:29:12;;;;;;;12.73;7.00;;;1.00;99.90;;;;;;5073291;28;20415;-77
2023/01/25 07:31:38;;;;;;;15.47;7.57;;;1.00;99.90;;;;;;5058310;28;20230;-77
2023/01/25 07:34:04;;;;;;;21.00;9.10;;;1.00;99.90;;;;;;5065260;28;20428;-77
2023/01/25 07:36:29;;;;;;;15.90;7.10;;;1.10;99.90;;;;;;5066857;28;20616;-77
2023/01/25 07:38:57;;;;;;;20.17;8.87;;;1.10;99.90;;;;;;5053101;28;20186;-77
2023/01/25 07:41:24;;;;;;;21.93;9.60;;;1.10;99.90;;;;;;5070129;28;20181;-77
2023/01/25 07:43:50;;;;;;;17.77;7.60;;;1.10;99.90;;;;;;5060863;28;20545;-77
2023/01/25 07:46:16;;;;;;;23.03;7.30;;;1.20;99.90;;;;;;5055617;28;20845;-77
2023/01/25 07:48:49;;;;;;;14.30;7.37;;;1.20;99.90;;;;;;5063363;28;20193;-77
2023/01/25 07:51:25;;;;;;;11.87;6.77;;;1.20;99.90;;;;;;5070145;28;20435;-76
2023/01/25 07:53:54;;;;;;;17.17;7.27;;;1.20;99.90;;;;;;5086099;28;20426;-76
2023/01/25 07:56:25;;;;;;;14.33;6.97;;;1.20;99.90;;;;;;5079750;28;20411;-78
2023/01/25 07:58:55;;;;;;;14.00;7.97;;;1.20;99.90;;;;;;5080909;28;20444;-77
2023/01/25 08:01:23;;;;;;;11.50;6.87;;;1.20;99.90;;;;;;5093341;28;20439;-77
2023/01/25 08:03:50;;;;;;;11.10;6.47;;;1.20;99.90;;;;;;5089841;28;20471;-76
2023/01/25 08:06:16;;;;;;;17.33;7.87;;;1.20;99.90;;;;;;5059404;28;20751;-77
2023/01/25 08:08:45;;;;;;;18.77;8.10;;;1.20;99.90;;;;;;5066031;28;20415;-77
2023/01/25 08:11:16;;;;;;;17.10;8.57;;;1.20;99.90;;;;;;5053232;28;20412;-77
2023/01/25 08:13:48;;;;;;;11.07;5.70;;;1.20;99.90;;;;;;5066481;28;20888;-77
2023/01/25 08:16:15;;;;;;;20.60;6.60;;;1.20;99.90;;;;;;5063454;28;20426;-77
2023/01/25 08:18:42;;;;;;;15.07;6.90;;;1.20;99.90;;;;;;5073445;28;20442;-77
2023/01/25 08:21:07;;;;;;;16.70;8.03;;;1.20;99.90;;;;;;5074001;28;20403;-77
2023/01/25 08:23:33;;;;;;;18.37;8.20;;;1.20;99.90;;;;;;5073308;28;20504;-77
2023/01/25 08:26:06;;;;;;;15.80;7.67;;;1.30;99.90;;;;;;5073240;28;20256;-77
2023/01/25 08:28:33;;;;;;;20.77;8.97;;;1.30;99.90;;;;;;5072976;28;20669;-76
2023/01/25 08:31:08;;;;;;;18.63;8.73;;;1.20;99.90;;;;;;5072896;28;20399;-77
2023/01/25 08:33:34;;;;;;;11.90;6.90;;;1.20;99.90;;;;;;5072567;28;20418;-77
2023/01/25 08:36:00;;;;;;;17.27;6.77;;;1.20;99.90;;;;;;5066248;28;20415;-77
2023/01/25 08:38:26;;;;;;;20.23;6.63;;;1.10;99.90;;;;;;5052768;28;20408;-77
2023/01/25 08:40:51;;;;;;;15.60;7.60;;;1.10;99.90;;;;;;5065530;28;20177;-77
2023/01/25 08:43:17;;;;;;;13.40;6.63;;;1.20;99.90;;;;;;5058997;28;20380;-76
2023/01/25 08:45:42;;;;;;;12.50;6.67;;;1.30;99.90;;;;;;5072777;28;20197;-77
2023/01/25 08:48:09;;;;;;;10.23;6.90;;;1.20;99.90;;;;;;5059129;28;20173;-77
2023/01/25 08:50:34;;;;;;;15.80;6.87;;;1.30;99.90;;;;;;5074709;28;20169;-77
2023/01/25 08:53:00;;;;;;;11.70;6.70;;;1.30;99.90;;;;;;5063169;28;20415;-77
2023/01/25 08:55:25;;;;;;;12.70;6.70;;;1.20;99.90;;;;;;5065200;28;20268;-77
2023/01/25 08:57:51;;;;;;;12.83;6.80;;;1.30;99.90;;;;;;5070064;28;20193;-77
2023/01/25 09:00:17;;;;;;;15.37;7.47;;;1.30;99.90;;;;;;5058888;28;20178;-77
2023/01/25 09:02:43;;;;;;;12.20;7.47;;;1.20;99.90;;;;;;5071311;28;20240;-77
2023/01/25 09:05:08;;;;;;;14.50;7.00;;;1.20;99.90;;;;;;5056479;28;20466;-77
2023/01/25 09:07:37;;;;;;;15.00;6.57;;;1.30;99.90;;;;;;5068502;28;20697;-77
2023/01/25 09:10:07;;;;;;;11.87;7.00;;;1.30;99.90;;;;;;5056503;28;20173;-77
2023/01/25 09:12:34;;;;;;;14.60;7.73;;;1.30;99.90;;;;;;5075103;28;20427;-77
2023/01/25 09:14:59;;;;;;;17.30;7.03;;;1.30;99.90;;;;;;5064048;28;20495;-77
2023/01/25 09:17:25;;;;;;;16.60;7.87;;;1.30;99.90;;;;;;5061518;28;20490;-77
2023/01/25 09:19:50;;;;;;;14.10;7.57;;;1.30;99.90;;;;;;5076214;28;20192;-77
2023/01/25 09:22:16;;;;;;;22.10;7.47;;;1.30;99.90;;;;;;5062111;28;20638;-77
2023/01/25 09:24:42;;;;;;;19.00;7.90;;;1.30;99.90;;;;;;5076088;28;20174;-77
2023/01/25 09:27:07;;;;;;;20.43;7.30;;;1.30;99.90;;;;;;5076255;28;20200;-78
2023/01/25 09:29:33;;;;;;;19.30;7.93;;;1.30;99.90;;;;;;5064786;28;20184;-77
2023/01/25 09:31:58;;;;;;;18.17;9.37;;;1.30;99.90;;;;;;5073675;28;20223;-77
2023/01/25 09:34:24;;;;;;;18.20;7.40;;;1.30;99.90;;;;;;5075903;28;20208;-77
2023/01/25 09:36:50;;;;;;;16.97;7.53;;;1.40;99.90;;;;;;5062343;28;20185;-77
2023/01/25 09:39:15;;;;;;;17.10;7.20;;;1.30;99.90;;;;;;5076144;28;20165;-77
2023/01/25 09:41:41;;;;;;;21.83;8.33;;;1.30;99.90;;;;;;5062399;28;20418;-77
2023/01/25 09:44:28;;;;;;;20.67;9.33;;;1.30;99.90;;;;;;5075324;28;20193;-77
2023/01/25 09:47:26;;;;;;;14.90;7.43;;;1.30;99.90;;;;;;5066671;28;20209;-77
2023/01/25 09:50:32;;;;;;;15.00;7.50;;;1.30;99.90;;;;;;5062386;28;20830;-77
2023/01/25 09:53:25;;;;;;;15.83;6.20;;;1.30;99.90;;;;;;5070066;28;20419;-77
2023/01/25 09:55:58;;;;;;;15.33;7.63;;;1.30;99.90;;;;;;5069023;28;20422;-77
2023/01/25 09:58:30;;;;;;;18.43;8.40;;;1.30;99.90;;;;;;5063912;28;20484;-77
2023/01/25 10:01:14;;;;;;;20.67;8.27;;;1.40;99.90;;;;;;5059557;28;20415;-77
2023/01/25 10:04:09;;;;;;;15.30;7.80;;;1.40;99.90;;;;;;5074598;28;20481;-77
2023/01/25 10:06:40;;;;;;;14.50;8.57;;;1.50;99.90;;;;;;5062981;28;20766;-77
2023/01/25 10:09:56;;;;;;;15.73;8.80;;;1.40;99.90;;;;;;5061468;28;20415;-77
2023/01/25 10:12:24;;;;;;;16.43;7.07;;;1.40;99.90;;;;;;5040882;28;20482;-77
2023/01/25 10:14:51;;;;;;;24.93;8.20;;;1.30;99.90;;;;;;5062548;28;20416;-77
2023/01/25 10:17:38;;;;;;;18.73;9.07;;;1.40;99.90;;;;;;5074045;28;20514;-77
2023/01/25 10:20:16;;;;;;;23.70;8.80;;;1.30;99.90;;;;;;5074925;28;20535;-77
2023/01/25 10:22:50;;;;;;;19.37;8.10;;;1.30;99.90;;;;;;5065063;28;21001;-77
2023/01/25 10:25:52;;;;;;;20.33;9.77;;;1.20;99.90;;;;;;5056634;28;20720;-77
2023/01/25 10:28:26;;;;;;;18.80;7.70;;;1.30;99.90;;;;;;5026067;28;20422;-77
2023/01/25 10:30:59;;;;;;;18.03;9.23;;;1.30;99.90;;;;;;5055280;28;20873;-77
2023/01/25 10:33:27;;;;;;;15.63;8.30;;;1.40;99.90;;;;;;5059484;28;20434;-77
2023/01/25 10:35:56;;;;;;;19.33;9.50;;;1.40;99.90;;;;;;5063043;28;20420;-77
2023/01/25 10:38:44;;;;;;;25.83;10.23;;;1.40;99.90;;;;;;5054614;28;20462;-77
2023/01/25 10:41:15;;;;;;;16.20;8.00;;;1.40;99.90;;;;;;5054634;28;20415;-77
2023/01/25 10:43:41;;;;;;;18.87;8.60;;;1.40;99.90;;;;;;5054621;28;20448;-77
2023/01/25 10:46:24;;;;;;;20.20;7.80;;;1.40;99.90;;;;;;5054453;28;20454;-77
2023/01/25 10:48:50;;;;;;;19.77;9.73;;;1.40;99.90;;;;;;5054373;28;20209;-77
2023/01/25 10:51:34;;;;;;;16.10;7.33;;;1.40;99.90;;;;;;5072427;28;20809;-77
2023/01/25 10:54:04;;;;;;;16.03;8.10;;;1.40;99.90;;;;;;5074587;28;20184;-77
2023/01/25 10:56:34;;;;;;;22.17;7.57;;;1.40;99.90;;;;;;5074250;28;20428;-77
2023/01/25 10:59:20;;;;;;;19.67;9.87;;;1.40;99.90;;;;;;5072308;28;20434;-77
2023/01/25 11:01:45;;;;;;;24.33;8.37;;;1.40;99.90;;;;;;5064003;28;20791;-77
2023/01/25 11:04:31;;;;;;;29.93;7.73;;;1.40;99.90;;;;;;5060265;28;20459;-78
2023/01/25 11:06:57;;;;;;;14.67;8.43;;;1.30;99.90;;;;;;5058989;28;20251;-77
2023/01/25 11:09:33;;;;;;;14.90;7.90;;;1.40;99.90;;;;;;5060071;28;20861;-78
2023/01/25 11:11:59;;;;;;;14.77;8.33;;;1.30;99.90;;;;;;5059689;28;20914;-79
2023/01/25 11:14:27;;;;;;;20.30;8.90;;;1.30;99.90;;;;;;5065936;28;20439;-78
2023/01/25 11:16:54;;;;;;;20.20;9.73;;;1.40;99.90;;;;;;5068133;28;20408;-78
2023/01/25 11:19:31;;;;;;;18.33;8.67;;;1.40;99.90;;;;;;5065593;28;20450;-78
2023/01/25 11:21:58;;;;;;;21.50;9.37;;;1.40;99.90;;;;;;5056144;28;20415;-78
2023/01/25 11:24:29;;;;;;;15.37;7.90;;;1.40;99.90;;;;;;5063982;28;20455;-78
2023/01/25 11:27:19;;;;;;;19.33;8.10;;;1.30;99.90;;;;;;5070248;28;20411;-78
2023/01/25 11:30:03;;;;;;;14.90;8.17;;;1.30;99.90;;;;;;5059806;28;20451;-78
2023/01/25 11:32:30;;;;;;;20.60;9.47;;;1.40;99.90;;;;;;5073166;28;20435;-78
2023/01/25 11:34:55;;;;;;;22.80;9.37;;;1.40;99.90;;;;;;5073324;28;20474;-78
2023/01/25 11:37:33;;;;;;;21.10;9.23;;;1.40;99.90;;;;;;5073422;28;20883;-78
2023/01/25 11:40:14;;;;;;;22.83;10.43;;;1.40;99.90;;;;;;5067593;28;20218;-78
2023/01/25 11:42:46;;;;;;;20.07;9.40;;;1.40;99.90;;;;;;5065675;28;20491;-78
2023/01/25 11:45:44;;;;;;;29.57;10.00;;;1.30;99.90;;;;;;5058736;28;20539;-78
2023/01/25 11:48:31;;;;;;;22.20;10.77;;;1.40;99.90;;;;;;5072664;28;20439;-79
2023/01/25 11:51:05;;;;;;;16.77;8.17;;;1.50;99.90;;;;;;5056764;28;20935;-78
2023/01/25 11:53:55;;;;;;;19.47;9.90;;;1.40;99.90;;;;;;5063673;28;20514;-78
2023/01/25 11:56:36;;;;;;;17.07;8.33;;;1.40;99.90;;;;;;5058959;28;20430;-78
2023/01/25 11:59:32;;;;;;;18.67;8.63;;;1.40;99.90;;;;;;5057421;28;20416;-78
2023/01/25 12:02:24;;;;;;;15.03;8.30;;;1.40;99.90;;;;;;5066385;28;21312;-78
2023/01/25 12:05:01;;;;;;;18.60;8.93;;;1.40;99.90;;;;;;5072900;28;20411;-78
2023/01/25 12:07:35;;;;;;;14.60;8.53;;;1.30;99.90;;;;;;5059152;28;20418;-78
2023/01/25 12:10:16;;;;;;;14.73;7.70;;;1.30;99.90;;;;;;5060179;28;20400;-77
2023/01/25 12:13:01;;;;;;;14.03;8.30;;;1.30;99.90;;;;;;5060105;28;20415;-77
2023/01/25 12:15:34;;;;;;;22.50;9.20;;;1.20;99.90;;;;;;5059924;28;20412;-77
2023/01/25 12:18:33;;;;;;;19.33;8.33;;;1.30;99.90;;;;;;5072476;28;20387;-77
2023/01/25 12:21:25;;;;;;;15.50;8.10;;;1.40;99.90;;;;;;5059215;28;20431;-75
2023/01/25 12:24:20;;;;;;;14.73;8.10;;;1.40;99.90;;;;;;5063113;28;20456;-75
2023/01/25 12:27:15;;;;;;;14.23;7.40;;;1.30;99.90;;;;;;5062715;28;20422;-74
2023/01/25 12:29:49;;;;;;;19.90;7.50;;;1.30;99.90;;;;;;5003042;28;20788;-75
2023/01/25 12:32:32;;;;;;;21.73;9.57;;;1.30;99.90;;;;;;5058862;28;20412;-74
2023/01/25 12:35:24;;;;;;;19.03;8.47;;;1.30;99.90;;;;;;5054599;28;20904;-76
2023/01/25 12:37:57;;;;;;;12.97;7.33;;;1.30;99.90;;;;;;5065114;28;20794;-75
2023/01/25 12:40:53;;;;;;;17.37;9.57;;;1.40;99.90;;;;;;5065925;28;20408;-74
2023/01/25 12:43:37;;;;;;;13.10;7.20;;;1.30;99.90;;;;;;5023158;28;20826;-75
2023/01/25 12:46:12;;;;;;;20.20;7.23;;;1.40;99.90;;;;;;5065664;28;20629;-75
2023/01/25 12:48:44;;;;;;;19.87;8.00;;;1.40;99.90;;;;;;5061908;28;20426;-75
2023/01/25 12:51:10;;;;;;;16.23;8.03;;;1.40;99.90;;;;;;5067691;28;20449;-75
2023/01/25 12:53:46;;;;;;;22.53;8.27;;;1.40;99.90;;;;;;5062185;28;20418;-75
2023/01/25 12:56:43;;;;;;;20.20;8.23;;;1.30;99.90;;;;;;5056743;28;20778;-75
2023/01/25 12:59:27;;;;;;;18.90;8.47;;;1.40;99.90;;;;;;5056320;28;20424;-75
2023/01/25 13:01:57;;;;;;;14.03;7.73;;;1.30;99.90;;;;;;5051071;28;20488;-75
2023/01/25 13:04:45;;;;;;;20.70;7.87;;;1.20;99.90;;;;;;5065354;28;20843;-75